Terminal Aerodrome Forecast
Issued by NWS

Home | Current Version | Previous Version | Text Only | Print | Product List | Glossary On
Versions: 1 2 3 4 5 6 7 8 9 10 11 12 13
000
FTUS41 KCAR 292351
TAFHUL
TAF
KHUL 292351Z 3000/3024 22004KT P6SM BKN045
     FM300600 22006KT P6SM BKN045
     FM301100 25005KT P6SM SCT015 OVC025
     FM301600 27007KT P6SM SCT025 BKN040
     FM302100 25005KT P6SM SCT100=

USA.gov is the U.S. government's official web portal to all federal, state and local government web resources and services.